createdAt,value
2022-08-17T00:00:06.913Z,29.50
2022-08-17T00:02:42.775Z,29.60
2022-08-17T00:05:10.189Z,29.90
2022-08-17T00:07:37.133Z,30.00
2022-08-17T00:10:04.297Z,30.00
2022-08-17T00:12:41.445Z,30.70
2022-08-17T00:15:23.949Z,30.80
2022-08-17T00:17:52.817Z,30.90
2022-08-17T00:20:20.232Z,30.60
2022-08-17T00:23:08.982Z,30.10
2022-08-17T00:25:36.203Z,30.00
2022-08-17T00:28:03.596Z,29.90
2022-08-17T00:30:31.161Z,29.70
2022-08-17T00:33:26.335Z,29.50
2022-08-17T00:35:54.607Z,29.50
2022-08-17T00:38:22.369Z,29.60
2022-08-17T00:40:56.001Z,29.60
2022-08-17T00:43:28.635Z,29.80
2022-08-17T00:45:55.714Z,29.90
2022-08-17T00:48:29.007Z,29.90
2022-08-17T00:50:59.923Z,30.00
2022-08-17T00:53:30.914Z,29.90
2022-08-17T00:56:00.010Z,29.90
2022-08-17T00:58:36.314Z,29.80
2022-08-17T01:01:06.781Z,29.60
2022-08-17T01:03:35.266Z,29.70
2022-08-17T01:06:04.548Z,29.70
2022-08-17T01:08:33.133Z,29.80
2022-08-17T01:11:05.415Z,30.10
2022-08-17T01:13:40.710Z,30.00
2022-08-17T01:16:16.153Z,30.30
2022-08-17T01:18:45.812Z,30.10
2022-08-17T01:21:55.123Z,30.20
2022-08-17T01:24:22.233Z,30.10
2022-08-17T01:26:49.499Z,30.10
2022-08-17T01:29:16.878Z,30.40
2022-08-17T01:31:54.962Z,31.00
2022-08-17T01:34:22.056Z,31.30
2022-08-17T01:36:50.059Z,31.10
2022-08-17T01:39:42.298Z,30.90
2022-08-17T01:42:21.651Z,30.90
2022-08-17T01:44:49.613Z,30.70
2022-08-17T01:47:16.563Z,30.60
2022-08-17T01:49:44.606Z,30.60
2022-08-17T01:52:12.956Z,30.40
2022-08-17T01:54:43.696Z,30.30
2022-08-17T01:57:11.616Z,30.20
2022-08-17T01:59:38.890Z,30.20
2022-08-17T02:02:07.481Z,30.20
2022-08-17T02:04:35.068Z,30.30
2022-08-17T02:07:02.127Z,30.50
2022-08-17T02:09:30.870Z,30.40
2022-08-17T02:12:37.358Z,30.20
2022-08-17T02:14:47.527Z,30.20
2022-08-17T02:17:14.686Z,30.50
2022-08-17T02:19:42.005Z,30.40
2022-08-17T02:22:10.317Z,30.30
2022-08-17T02:25:00.651Z,30.20
2022-08-17T02:27:25.950Z,30.10
2022-08-17T02:29:52.952Z,30.40
2022-08-17T02:32:27.268Z,30.20
2022-08-17T02:35:01.206Z,30.20
2022-08-17T02:37:29.053Z,29.80
2022-08-17T02:40:00.348Z,29.80
2022-08-17T02:42:34.029Z,30.00
2022-08-17T02:45:02.596Z,30.20
2022-08-17T02:47:29.960Z,30.00
2022-08-17T02:49:57.139Z,30.00
2022-08-17T02:52:42.945Z,30.00
2022-08-17T02:55:17.864Z,30.00
2022-08-17T02:57:45.322Z,30.00
2022-08-17T03:00:19.953Z,30.00
2022-08-17T03:02:47.256Z,30.10
2022-08-17T03:05:17.098Z,30.20
2022-08-17T03:07:44.185Z,30.30
2022-08-17T03:10:11.942Z,30.00
2022-08-17T03:12:41.078Z,29.80
2022-08-17T03:15:18.990Z,29.60
2022-08-17T03:17:46.408Z,29.70
2022-08-17T03:20:16.301Z,29.90
2022-08-17T03:22:53.091Z,29.80
2022-08-17T03:25:26.846Z,29.70
2022-08-17T03:27:55.552Z,29.90
2022-08-17T03:30:23.553Z,30.00
2022-08-17T03:32:52.216Z,30.20
2022-08-17T03:35:22.324Z,30.10
2022-08-17T03:37:51.395Z,30.10
2022-08-17T03:40:55.463Z,30.00
2022-08-17T03:43:15.773Z,30.00
2022-08-17T03:46:02.524Z,29.90
2022-08-17T03:48:48.388Z,30.00
2022-08-17T03:51:40.246Z,30.00
2022-08-17T03:54:26.624Z,30.00
2022-08-17T03:57:08.892Z,30.20
2022-08-17T03:59:37.580Z,30.10
2022-08-17T04:02:11.232Z,30.10
2022-08-17T04:04:38.743Z,30.40
2022-08-17T04:07:06.189Z,30.60
2022-08-17T04:09:33.373Z,30.50
2022-08-17T04:12:04.540Z,30.20
2022-08-17T04:14:37.856Z,30.00
2022-08-17T04:17:20.611Z,29.90
2022-08-17T04:19:47.626Z,29.70
2022-08-17T04:22:32.572Z,29.30
2022-08-17T04:25:16.411Z,29.30
2022-08-17T04:27:43.369Z,29.30
2022-08-17T04:30:10.953Z,29.50
2022-08-17T04:33:06.471Z,29.20
2022-08-17T04:35:47.331Z,29.20
2022-08-17T04:38:17.449Z,29.20
2022-08-17T04:41:03.795Z,29.20
2022-08-17T04:43:32.863Z,29.50
2022-08-17T04:46:02.545Z,29.70
2022-08-17T04:48:35.718Z,29.90
2022-08-17T04:51:12.089Z,30.00
2022-08-17T04:53:44.533Z,30.00
2022-08-17T04:56:16.677Z,30.10
2022-08-17T04:58:49.975Z,30.00
2022-08-17T05:01:23.114Z,30.20
2022-08-17T05:03:56.381Z,30.00
2022-08-17T05:06:24.129Z,29.60
2022-08-17T05:08:51.256Z,29.30
2022-08-17T05:11:18.234Z,28.90
2022-08-17T05:13:45.261Z,28.70
2022-08-17T05:16:12.693Z,29.00
2022-08-17T05:18:39.672Z,29.20
2022-08-17T05:21:07.043Z,29.40
2022-08-17T05:23:41.799Z,29.20
2022-08-17T05:26:25.546Z,29.30
2022-08-17T05:28:54.712Z,29.40
2022-08-17T05:31:24.830Z,29.40
2022-08-17T05:33:52.507Z,29.10
2022-08-17T05:36:42.517Z,28.60
2022-08-17T05:39:06.798Z,28.20
2022-08-17T05:41:33.774Z,28.00
2022-08-17T05:44:00.728Z,27.80
2022-08-17T05:46:40.058Z,27.80
2022-08-17T05:49:08.705Z,27.80
2022-08-17T05:51:35.610Z,27.70
2022-08-17T05:54:36.475Z,27.40
2022-08-17T05:57:06.146Z,27.80
2022-08-17T05:59:57.275Z,27.60
2022-08-17T06:03:00.593Z,27.30
2022-08-17T06:05:54.139Z,27.10
2022-08-17T06:09:00.476Z,26.60
2022-08-17T06:11:35.313Z,26.40
2022-08-17T06:14:22.536Z,26.30
2022-08-17T06:16:56.539Z,26.30
2022-08-17T06:19:38.552Z,26.20
2022-08-17T06:22:07.062Z,26.00
2022-08-17T06:24:57.911Z,25.70
2022-08-17T06:27:30.805Z,25.60
2022-08-17T06:30:12.117Z,25.60
2022-08-17T06:32:46.222Z,25.40
2022-08-17T06:35:37.708Z,25.40
2022-08-17T06:38:37.105Z,25.20
2022-08-17T06:41:30.027Z,25.00
2022-08-17T06:44:06.458Z,25.00
2022-08-17T06:46:48.657Z,24.90
2022-08-17T06:49:26.221Z,24.90
2022-08-17T06:52:00.998Z,25.10
2022-08-17T06:54:45.938Z,24.90
2022-08-17T06:57:36.201Z,24.70
2022-08-17T07:00:10.766Z,24.50
2022-08-17T07:02:55.478Z,24.20
2022-08-17T07:05:32.855Z,24.10
2022-08-17T07:08:03.032Z,23.80
2022-08-17T07:10:36.921Z,23.40
2022-08-17T07:13:20.570Z,23.40
2022-08-17T07:15:51.816Z,23.30
2022-08-17T07:18:26.126Z,23.10
2022-08-17T07:21:00.057Z,23.10
2022-08-17T07:23:52.708Z,23.20
2022-08-17T07:26:19.895Z,23.00
2022-08-17T07:28:46.979Z,23.10
2022-08-17T07:31:17.634Z,22.90
2022-08-17T07:34:08.017Z,22.40
2022-08-17T07:36:35.271Z,22.20
2022-08-17T07:39:04.183Z,22.20
2022-08-17T07:41:57.610Z,22.00
2022-08-17T07:44:26.684Z,21.50
2022-08-17T07:47:12.970Z,21.60
2022-08-17T07:49:46.535Z,21.50
2022-08-17T07:52:51.166Z,21.20
2022-08-17T07:55:29.994Z,21.20
2022-08-17T07:57:59.580Z,21.00
2022-08-17T08:00:32.776Z,20.90
2022-08-17T08:03:32.102Z,20.70
2022-08-17T08:06:02.402Z,20.80
2022-08-17T08:08:29.560Z,20.50
2022-08-17T08:11:04.706Z,20.30
2022-08-17T08:13:33.304Z,20.00
2022-08-17T08:16:17.386Z,19.90
2022-08-17T08:18:56.116Z,19.80
2022-08-17T08:21:51.540Z,19.80
2022-08-17T08:24:45.039Z,19.60
2022-08-17T08:27:40.262Z,19.50
2022-08-17T08:30:12.192Z,19.30
2022-08-17T08:32:54.176Z,19.20
2022-08-17T08:35:32.598Z,19.10
2022-08-17T08:38:20.227Z,18.90
2022-08-17T08:41:16.549Z,19.00
2022-08-17T08:43:53.016Z,18.70
2022-08-17T08:46:48.414Z,18.90
2022-08-17T08:52:37.847Z,18.60
2022-08-17T08:55:46.512Z,18.40
2022-08-17T08:58:32.022Z,18.20
2022-08-17T09:01:19.208Z,18.10
2022-08-17T09:04:25.208Z,18.00
2022-08-17T09:07:06.427Z,18.10
2022-08-17T09:09:49.997Z,18.10
2022-08-17T09:12:41.807Z,18.00
2022-08-17T09:15:35.331Z,17.80
2022-08-17T09:19:03.265Z,17.60
2022-08-17T09:21:18.215Z,17.80
2022-08-17T09:24:02.722Z,17.50
2022-08-17T09:26:57.219Z,17.60
2022-08-17T09:29:27.173Z,17.50
2022-08-17T09:31:55.450Z,17.60
2022-08-17T09:34:43.576Z,17.40
2022-08-17T09:37:42.035Z,17.50
2022-08-17T09:40:21.318Z,17.60
2022-08-17T09:43:06.806Z,17.50
2022-08-17T09:45:53.188Z,17.30
2022-08-17T09:48:38.935Z,17.50
2022-08-17T09:51:34.306Z,17.50
2022-08-17T09:54:34.753Z,17.50
2022-08-17T09:57:11.799Z,17.40
2022-08-17T10:00:13.346Z,17.50
2022-08-17T10:02:54.536Z,17.80
2022-08-17T10:05:39.802Z,17.20
2022-08-17T10:08:44.980Z,17.40
2022-08-17T10:11:52.465Z,17.30
2022-08-17T10:14:46.312Z,17.20
2022-08-17T10:17:31.196Z,17.40
2022-08-17T10:20:07.227Z,17.40
2022-08-17T10:23:18.354Z,17.30
2022-08-17T10:26:14.633Z,17.30
2022-08-17T10:28:50.226Z,17.50
2022-08-17T10:31:36.296Z,17.50
2022-08-17T10:34:28.297Z,17.50
2022-08-17T10:37:07.238Z,17.30
2022-08-17T10:39:52.589Z,17.10
2022-08-17T10:42:43.797Z,17.00
2022-08-17T10:45:26.612Z,16.50
2022-08-17T10:48:07.889Z,16.70
2022-08-17T10:51:18.652Z,16.70
2022-08-17T10:53:49.706Z,17.00
2022-08-17T10:56:17.533Z,16.70
2022-08-17T10:59:02.473Z,16.70
2022-08-17T11:01:32.234Z,17.00
2022-08-17T11:04:29.048Z,17.40
2022-08-17T11:07:21.142Z,18.00
2022-08-17T11:10:29.732Z,18.50
2022-08-17T11:13:11.520Z,19.10
2022-08-17T11:16:02.353Z,19.60
2022-08-17T11:18:56.418Z,19.90
2022-08-17T11:21:45.214Z,20.30
2022-08-17T11:24:31.549Z,20.80
2022-08-17T11:27:33.994Z,21.00
2022-08-17T11:30:05.601Z,21.40
2022-08-17T11:32:47.344Z,21.90
2022-08-17T11:35:21.483Z,22.20
2022-08-17T11:38:16.254Z,22.30
2022-08-17T11:41:06.519Z,22.10
2022-08-17T11:43:56.449Z,21.80
2022-08-17T11:46:51.904Z,21.30
2022-08-17T11:50:31.658Z,20.60
2022-08-17T11:52:58.647Z,19.70
2022-08-17T11:55:38.440Z,19.20
2022-08-17T11:58:30.413Z,18.80
2022-08-17T12:00:59.235Z,18.60
2022-08-17T12:03:32.362Z,18.30
2022-08-17T12:06:30.467Z,18.40
2022-08-17T12:09:24.981Z,18.20
2022-08-17T12:12:29.699Z,18.10
2022-08-17T12:15:10.153Z,17.80
2022-08-17T12:17:40.139Z,17.80
2022-08-17T12:20:19.074Z,17.60
2022-08-17T12:23:05.058Z,17.20
2022-08-17T12:25:56.749Z,17.20
2022-08-17T12:28:36.395Z,17.20
2022-08-17T12:31:07.251Z,17.50
2022-08-17T12:33:37.025Z,18.00
2022-08-17T12:36:08.649Z,18.30
2022-08-17T12:38:38.128Z,18.70
2022-08-17T12:41:26.312Z,19.30
2022-08-17T12:44:02.587Z,19.80
2022-08-17T12:46:33.701Z,20.40
2022-08-17T12:49:23.636Z,20.90
2022-08-17T12:52:02.608Z,21.30
2022-08-17T12:54:48.220Z,21.70
2022-08-17T12:57:31.389Z,21.70
2022-08-17T13:00:08.372Z,21.70
2022-08-17T13:02:40.871Z,21.20
2022-08-17T13:05:17.954Z,20.70
2022-08-17T13:07:46.662Z,20.40
2022-08-17T13:10:36.023Z,20.30
2022-08-17T13:13:17.761Z,19.90
2022-08-17T13:15:57.232Z,19.40
2022-08-17T13:18:44.222Z,19.30
2022-08-17T13:21:19.172Z,19.10
2022-08-17T13:23:59.882Z,19.00
2022-08-17T13:26:38.094Z,18.90
2022-08-17T13:29:07.753Z,18.90
2022-08-17T13:31:52.559Z,19.00
2022-08-17T13:34:29.111Z,18.80
2022-08-17T13:37:32.510Z,19.00
2022-08-17T13:40:02.524Z,18.80
2022-08-17T13:42:52.022Z,18.80
2022-08-17T13:45:39.300Z,18.70
2022-08-17T13:48:06.694Z,18.60
2022-08-17T13:50:35.251Z,18.50
2022-08-17T13:53:02.538Z,18.30
2022-08-17T13:55:32.179Z,18.30
2022-08-17T13:58:04.098Z,18.10
2022-08-17T14:00:37.788Z,18.30
2022-08-17T14:03:05.638Z,18.40
2022-08-17T14:05:37.414Z,18.20
2022-08-17T14:08:06.683Z,18.20
2022-08-17T14:10:36.601Z,18.40
2022-08-17T14:13:04.954Z,18.50
2022-08-17T14:15:54.988Z,18.70
2022-08-17T14:18:43.339Z,18.80
2022-08-17T14:21:13.069Z,18.60
2022-08-17T14:23:41.116Z,18.70
2022-08-17T14:26:18.194Z,18.70
2022-08-17T14:28:56.317Z,18.80
2022-08-17T14:31:26.737Z,18.90
2022-08-17T14:33:54.745Z,19.00
2022-08-17T14:36:26.287Z,19.10
2022-08-17T14:38:56.553Z,19.00
2022-08-17T14:41:24.373Z,19.30
2022-08-17T14:43:53.671Z,19.30
2022-08-17T14:46:20.857Z,19.30
2022-08-17T14:48:47.806Z,19.40
2022-08-17T14:51:18.151Z,19.50
2022-08-17T14:53:45.980Z,19.30
2022-08-17T14:56:13.522Z,19.40
2022-08-17T14:58:43.263Z,19.40
2022-08-17T15:01:14.684Z,19.70
2022-08-17T15:03:42.365Z,19.90
2022-08-17T15:06:16.459Z,20.10
2022-08-17T15:08:44.759Z,20.50
2022-08-17T15:11:14.459Z,20.20
2022-08-17T15:13:52.453Z,20.40
2022-08-17T15:16:20.607Z,20.20
2022-08-17T15:18:47.692Z,20.00
2022-08-17T15:21:14.992Z,20.30
2022-08-17T15:23:42.103Z,20.50
2022-08-17T15:26:11.589Z,20.90
2022-08-17T15:28:38.788Z,21.10
2022-08-17T15:31:06.788Z,21.50
2022-08-17T15:33:34.056Z,21.80
2022-08-17T15:36:06.528Z,22.20
2022-08-17T15:38:39.577Z,22.50
2022-08-17T15:41:08.668Z,22.70
2022-08-17T15:43:36.640Z,22.80
2022-08-17T15:46:12.521Z,22.90
2022-08-17T15:48:42.018Z,23.10
2022-08-17T15:51:09.206Z,23.10
2022-08-17T15:53:37.037Z,23.30
2022-08-17T15:56:05.436Z,23.60
2022-08-17T15:58:37.064Z,24.00
2022-08-17T16:01:14.788Z,24.00
2022-08-17T16:04:04.302Z,23.60
2022-08-17T16:06:32.442Z,23.90
2022-08-17T16:09:00.504Z,23.90
2022-08-17T16:11:27.568Z,24.10
2022-08-17T16:13:56.067Z,24.10
2022-08-17T16:16:25.616Z,24.10
2022-08-17T16:18:58.521Z,23.90
2022-08-17T16:21:27.108Z,24.20
2022-08-17T16:24:04.601Z,24.60
2022-08-17T16:26:33.365Z,24.70
2022-08-17T16:29:02.716Z,24.50
2022-08-17T16:31:29.760Z,24.50
2022-08-17T16:34:15.640Z,24.90
2022-08-17T16:36:51.715Z,24.90
2022-08-17T16:39:26.968Z,25.00
2022-08-17T16:41:54.289Z,25.10
2022-08-17T16:44:21.978Z,25.10
2022-08-17T16:46:52.464Z,25.40
2022-08-17T16:49:35.125Z,25.50
2022-08-17T16:52:07.012Z,25.60
2022-08-17T16:54:35.666Z,25.80
2022-08-17T16:57:05.389Z,25.80
2022-08-17T16:59:41.945Z,25.90
2022-08-17T17:02:11.114Z,25.90
2022-08-17T17:04:45.497Z,25.90
2022-08-17T17:07:34.039Z,25.70
2022-08-17T17:10:11.776Z,25.60
2022-08-17T17:13:03.165Z,25.80
2022-08-17T17:15:54.394Z,26.00
2022-08-17T17:18:31.851Z,26.10
2022-08-17T17:21:00.537Z,26.10
2022-08-17T17:23:45.840Z,25.90
2022-08-17T17:26:21.945Z,26.00
2022-08-17T17:29:00.926Z,26.10
2022-08-17T17:31:38.729Z,26.10
2022-08-17T17:34:10.995Z,26.20
2022-08-17T17:36:40.461Z,26.20
2022-08-17T17:39:19.468Z,26.10
2022-08-17T17:41:52.272Z,26.20
2022-08-17T17:44:28.783Z,26.10
2022-08-17T17:46:58.389Z,26.10
2022-08-17T17:49:33.200Z,26.10
2022-08-17T17:52:14.451Z,26.20
2022-08-17T17:55:19.753Z,26.30
2022-08-17T17:58:20.596Z,26.40
2022-08-17T18:01:17.747Z,26.50
2022-08-17T18:03:59.283Z,26.60
2022-08-17T18:06:57.183Z,26.60
2022-08-17T18:10:01.510Z,26.70
2022-08-17T18:13:08.938Z,26.80
2022-08-17T18:15:51.501Z,26.90
2022-08-17T18:18:18.502Z,27.00
2022-08-17T18:20:53.997Z,27.10
2022-08-17T18:23:27.933Z,27.10
2022-08-17T18:25:56.735Z,27.00
2022-08-17T18:28:27.968Z,27.20
2022-08-17T18:31:18.076Z,27.30
2022-08-17T18:33:51.016Z,27.30
2022-08-17T18:36:32.847Z,27.30
2022-08-17T18:39:21.462Z,27.30
2022-08-17T18:41:50.735Z,27.40
2022-08-17T18:44:32.959Z,27.60
2022-08-17T18:47:20.279Z,27.50
2022-08-17T18:49:57.974Z,27.60
2022-08-17T18:52:31.107Z,27.60
2022-08-17T18:55:11.636Z,27.60
2022-08-17T18:57:46.703Z,27.50
2022-08-17T19:00:30.711Z,27.40
2022-08-17T19:03:01.864Z,27.40
2022-08-17T19:05:41.160Z,27.40
2022-08-17T19:08:23.156Z,27.50
2022-08-17T19:11:03.784Z,27.40
2022-08-17T19:14:10.678Z,27.50
2022-08-17T19:16:50.326Z,27.40
2022-08-17T19:19:54.207Z,27.30
2022-08-17T19:22:31.002Z,27.30
2022-08-17T19:25:16.031Z,27.40
2022-08-17T19:28:01.692Z,27.40
2022-08-17T19:30:32.998Z,27.30
2022-08-17T19:33:02.652Z,27.30
2022-08-17T19:35:59.010Z,27.30
2022-08-17T19:38:40.517Z,27.40
2022-08-17T19:41:21.731Z,27.50
2022-08-17T19:44:00.652Z,27.60
2022-08-17T19:47:01.975Z,27.70
2022-08-17T19:50:01.003Z,27.80
2022-08-17T19:52:33.835Z,28.00
2022-08-17T19:55:04.821Z,27.90
2022-08-17T19:57:50.855Z,27.80
2022-08-17T20:00:19.291Z,27.70
2022-08-17T20:03:00.203Z,27.70
2022-08-17T20:05:29.319Z,27.70
2022-08-17T20:08:10.818Z,27.70
2022-08-17T20:10:54.594Z,27.70
2022-08-17T20:14:04.754Z,27.60
2022-08-17T20:16:33.380Z,27.50
2022-08-17T20:19:45.241Z,27.40
2022-08-17T20:22:29.228Z,27.30
2022-08-17T20:25:19.572Z,27.30
2022-08-17T20:28:22.554Z,27.30
2022-08-17T20:30:51.589Z,27.20
2022-08-17T20:33:37.180Z,27.20
2022-08-17T20:36:16.607Z,27.20
2022-08-17T20:38:57.804Z,27.10
2022-08-17T20:41:30.446Z,27.10
2022-08-17T20:43:57.334Z,27.00
2022-08-17T20:46:36.433Z,27.10
2022-08-17T20:49:14.571Z,27.00
2022-08-17T20:52:02.555Z,27.10
2022-08-17T20:54:41.683Z,27.20
2022-08-17T20:57:14.406Z,27.20
2022-08-17T20:59:45.120Z,27.30
2022-08-17T21:02:20.037Z,27.20
2022-08-17T21:04:56.961Z,27.40
2022-08-17T21:07:41.039Z,27.50
2022-08-17T21:10:29.928Z,27.60
2022-08-17T21:13:12.488Z,27.60
2022-08-17T21:15:42.441Z,27.50
2022-08-17T21:18:26.180Z,27.50
2022-08-17T21:21:32.508Z,27.40
2022-08-17T21:24:20.563Z,27.50
2022-08-17T21:27:23.696Z,27.40
2022-08-17T21:30:06.496Z,27.50
2022-08-17T21:32:38.987Z,27.60
2022-08-17T21:35:15.830Z,27.60
2022-08-17T21:37:45.876Z,27.60
2022-08-17T21:40:18.803Z,27.70
2022-08-17T21:42:50.651Z,27.70
2022-08-17T21:45:31.197Z,28.30
2022-08-17T21:48:23.989Z,27.80
2022-08-17T21:51:00.992Z,27.90
2022-08-17T21:53:53.539Z,27.90
2022-08-17T21:56:29.031Z,27.80
2022-08-17T21:59:02.965Z,28.40
2022-08-17T22:01:37.575Z,27.80
2022-08-17T22:04:27.397Z,27.80
2022-08-17T22:06:57.528Z,27.90
2022-08-17T22:09:34.734Z,27.90
2022-08-17T22:12:07.581Z,28.00
2022-08-17T22:14:52.466Z,28.00
2022-08-17T22:17:29.038Z,27.90
2022-08-17T22:20:14.619Z,27.80
2022-08-17T22:23:25.844Z,27.80
2022-08-17T22:26:03.768Z,27.90
2022-08-17T22:28:45.866Z,28.10
2022-08-17T22:31:18.862Z,28.10
2022-08-17T22:34:13.093Z,28.20
2022-08-17T22:36:42.228Z,28.10
2022-08-17T22:39:09.139Z,28.10
2022-08-17T22:41:48.235Z,28.00
2022-08-17T22:44:41.539Z,28.00
2022-08-17T22:47:18.454Z,28.00
2022-08-17T22:49:53.321Z,28.00
2022-08-17T22:53:02.271Z,28.10
2022-08-17T22:55:52.654Z,28.00
2022-08-17T22:58:42.295Z,28.00
2022-08-17T23:01:32.470Z,28.00
2022-08-17T23:04:07.097Z,28.00
2022-08-17T23:06:35.582Z,27.90
2022-08-17T23:09:05.862Z,27.80
2022-08-17T23:11:49.746Z,27.80
2022-08-17T23:14:19.942Z,27.70
2022-08-17T23:16:48.797Z,27.80
2022-08-17T23:19:20.460Z,27.80
2022-08-17T23:21:48.838Z,27.80
2022-08-17T23:24:22.651Z,27.80
2022-08-17T23:26:49.659Z,27.80
2022-08-17T23:29:16.743Z,27.70
2022-08-17T23:31:43.699Z,27.70
2022-08-17T23:34:13.335Z,27.70
2022-08-17T23:36:41.577Z,27.70
2022-08-17T23:39:08.617Z,27.80
2022-08-17T23:41:40.145Z,27.70
2022-08-17T23:44:07.745Z,27.70
2022-08-17T23:46:35.159Z,27.80
2022-08-17T23:49:03.329Z,27.70
2022-08-17T23:51:38.488Z,27.90
2022-08-17T23:54:20.892Z,28.00
2022-08-17T23:56:47.999Z,28.10
2022-08-17T23:59:19.857Z,28.00
